logo tempoitalia

Diretta Meteo Lawrence, Stati Uniti (USA)lunedì 31 agosto ore 00:52

Mappa
Sereno 26 °C Sereno 24 Ore: T.min 22 T.max 38
Ponente Sud-Est Km/h 13 Punto di rugiada: 17 °C Umidità: 57% Visibilità: 10 Km
Il sole sorge alle: 06:49 Il sole tramonta alle: 19:53
31 Agosto 2026 00:52 tempo osservato: Sereno Sereno 26 57 1011 vento: Nord SE 13
30 Agosto 2026 23:52 tempo osservato: Sereno Sereno 27 54 1011 vento: Nord E/SE 14.8
30 Agosto 2026 22:52 tempo osservato: Sereno Sereno 27 57 1011 vento: Nord E/SE 11.1
30 Agosto 2026 21:52 tempo osservato: Sereno Sereno 30 45 1011 vento: Nord S/SE 16.7
30 Agosto 2026 20:52 tempo osservato: Sereno Sereno 27 61 1010 vento: Nord SE 11.1
30 Agosto 2026 19:52 tempo osservato: Sereno Sereno 29 58 1010 vento: Nord SE 11.1
30 Agosto 2026 18:52 tempo osservato: Sereno Sereno 36 34 1009 vento: Nord S 14.8
30 Agosto 2026 17:52 tempo osservato: Sereno Sereno 38 29 1009 vento: Nord S 24
30 Agosto 2026 16:52 tempo osservato: Sereno Sereno 38 33 1009 vento: Nord S 25.9
30 Agosto 2026 15:52 tempo osservato: Sereno Sereno 38 35 1010 vento: Nord S 24
30 Agosto 2026 14:52 tempo osservato: Sereno Sereno 38 35 1011 vento: Nord S/SO 18.5
30 Agosto 2026 13:52 tempo osservato: Sereno Sereno 36 36 1011 vento: Nord S/SO 24
30 Agosto 2026 12:52 tempo osservato: Sereno Sereno 35 39 1012 vento: Nord S 24
30 Agosto 2026 11:52 tempo osservato: Sereno Sereno 33 43 1012 vento: Nord S 14.8
30 Agosto 2026 10:52 tempo osservato: Sereno Sereno 31 48 1012 vento: Nord S/SO 18.5
30 Agosto 2026 09:52 tempo osservato: Sereno Sereno 29 51 1012 vento: Nord S/SO 14.8
30 Agosto 2026 08:52 tempo osservato: Sereno Sereno 27 54 1013 vento: Nord S 18.5
30 Agosto 2026 07:52 tempo osservato: Sereno Sereno 26 57 1013 vento: Nord S 11.1
30 Agosto 2026 06:52 tempo osservato: Sereno Sereno 24 60 1013 vento: Nord S/SE 11.1
30 Agosto 2026 05:52 tempo osservato: Sereno Sereno 24 60 1013 vento: Nord SE 9.3
30 Agosto 2026 04:52 tempo osservato: Sereno Sereno 23 68 1012 vento: Nord SE 7.4
30 Agosto 2026 03:52 tempo osservato: Sereno Sereno 22 73 1012 vento: Nord E/SE 9.3
30 Agosto 2026 02:52 tempo osservato: Sereno Sereno 22 73 1012 vento: Nord SE 11.1
30 Agosto 2026 01:52 tempo osservato: Sereno Sereno 24 64 1012 vento: Nord E/SE 14.8